createdAt,value
2019-04-01T00:00:43.815Z,95640.13
2019-04-01T00:03:12.504Z,95645.34
2019-04-01T00:05:41.145Z,95642.22
2019-04-01T00:08:09.997Z,95644.76
2019-04-01T00:10:38.665Z,95643.67
2019-04-01T00:13:07.266Z,95647.42
2019-04-01T00:15:36.152Z,95637.83
2019-04-01T00:18:04.812Z,95634.30
2019-04-01T00:20:33.454Z,95640.79
2019-04-01T00:23:02.562Z,95639.64
2019-04-01T00:25:31.272Z,95630.74
2019-04-01T00:28:00.114Z,95632.31
2019-04-01T00:30:28.948Z,95632.08
2019-04-01T00:32:57.550Z,95637.30
2019-04-01T00:35:26.165Z,95635.41
2019-04-01T00:37:55.042Z,95635.85
2019-04-01T00:40:23.663Z,95631.96
2019-04-01T00:42:56.392Z,95629.75
2019-04-01T00:45:25.638Z,95631.80
2019-04-01T00:47:54.509Z,95630.31
2019-04-01T00:50:23.440Z,95635.66
2019-04-01T00:52:52.070Z,95635.00
2019-04-01T00:55:20.683Z,95630.92
2019-04-01T00:57:53.218Z,95625.69
2019-04-01T01:00:22.367Z,95627.35
2019-04-01T01:02:50.973Z,95631.72
2019-04-01T01:05:19.592Z,95633.13
2019-04-01T01:07:48.450Z,95629.00
2019-04-01T01:10:17.223Z,95621.66
2019-04-01T01:12:46.081Z,95624.09
2019-04-01T01:15:14.996Z,95624.05
2019-04-01T01:17:43.618Z,95624.28
2019-04-01T01:20:12.305Z,95623.78
2019-04-01T01:22:40.920Z,95614.56
2019-04-01T01:25:09.674Z,95615.70
2019-04-01T01:27:38.342Z,95611.52
2019-04-01T01:30:07.223Z,95614.12
2019-04-01T01:32:35.856Z,95608.89
2019-04-01T01:35:04.550Z,95609.47
2019-04-01T01:37:33.414Z,95608.34
2019-04-01T01:40:02.035Z,95606.80
2019-04-01T01:42:30.626Z,95603.61
2019-04-01T01:44:59.474Z,95604.30
2019-04-01T01:47:28.799Z,95600.07
2019-04-01T01:49:57.403Z,95597.22
2019-04-01T01:52:26.018Z,95598.06
2019-04-01T01:54:54.630Z,95599.40
2019-04-01T01:57:23.214Z,95596.80
2019-04-01T01:59:52.080Z,95600.77
2019-04-01T02:02:20.682Z,95603.94
2019-04-01T02:04:49.761Z,95601.02
2019-04-01T02:07:19.125Z,95602.66
2019-04-01T02:09:47.975Z,95601.30
2019-04-01T02:12:16.855Z,95607.23
2019-04-01T02:14:45.824Z,95599.73
2019-04-01T02:17:14.457Z,95609.52
2019-04-01T02:19:43.052Z,95606.09
2019-04-01T02:22:11.675Z,95604.80
2019-04-01T02:24:40.275Z,95606.16
2019-04-01T02:27:08.909Z,95595.75
2019-04-01T02:29:37.503Z,95601.11
2019-04-01T02:32:06.439Z,95594.83
2019-04-01T02:34:35.054Z,95592.84
2019-04-01T02:37:03.682Z,95598.25
2019-04-01T02:39:32.474Z,95592.05
2019-04-01T02:42:01.478Z,95596.27
2019-04-01T02:44:30.067Z,95583.69
2019-04-01T02:46:58.667Z,95586.98
2019-04-01T02:49:27.525Z,95589.70
2019-04-01T02:51:56.130Z,95586.19
2019-04-01T02:54:24.762Z,95590.00
2019-04-01T02:56:53.603Z,95581.05
2019-04-01T02:59:22.477Z,95579.23
2019-04-01T03:01:51.079Z,95581.77
2019-04-01T03:04:19.688Z,95576.92
2019-04-01T03:06:48.340Z,95572.70
2019-04-01T03:09:16.988Z,95581.52
2019-04-01T03:11:45.616Z,95579.84
2019-04-01T03:14:14.302Z,95575.45
2019-04-01T03:16:43.160Z,95572.29
2019-04-01T03:19:11.785Z,95572.44
2019-04-01T03:21:40.381Z,95574.55
2019-04-01T03:24:09.244Z,95569.58
2019-04-01T03:26:37.891Z,95571.27
2019-04-01T03:29:06.554Z,95567.30
2019-04-01T03:31:35.165Z,95565.55
2019-04-01T03:34:04.155Z,95570.06
2019-04-01T03:36:32.762Z,95570.06
2019-04-01T03:39:01.379Z,95572.28
2019-04-01T03:41:29.947Z,95575.59
2019-04-01T03:43:58.551Z,95566.36
2019-04-01T03:46:27.168Z,95574.67
2019-04-01T03:48:56.027Z,95565.07
2019-04-01T03:51:24.676Z,95568.61
2019-04-01T03:53:53.354Z,95575.84
2019-04-01T03:56:22.171Z,95568.02
2019-04-01T03:58:51.025Z,95575.23
2019-04-01T04:01:19.873Z,95572.55
2019-04-01T04:03:48.518Z,95571.55
2019-04-01T04:06:17.108Z,95572.70
2019-04-01T04:08:45.723Z,95573.17
2019-04-01T04:11:14.873Z,95565.48
2019-04-01T04:13:43.476Z,95565.87
2019-04-01T04:16:12.396Z,95570.09
2019-04-01T04:18:41.274Z,95560.55
2019-04-01T04:21:11.118Z,95565.13
2019-04-01T04:23:39.724Z,95562.65
2019-04-01T04:26:08.433Z,95561.48
2019-04-01T04:28:37.315Z,95567.16
2019-04-01T04:31:06.191Z,95565.50
2019-04-01T04:33:34.804Z,95568.93
2019-04-01T04:36:03.429Z,95566.30
2019-04-01T04:38:32.098Z,95558.01
2019-04-01T04:41:00.714Z,95559.84
2019-04-01T04:43:29.813Z,95559.78
2019-04-01T04:45:58.399Z,95561.98
2019-04-01T04:48:27.764Z,95558.82
2019-04-01T04:50:56.847Z,95562.42
2019-04-01T04:53:25.697Z,95557.02
2019-04-01T04:55:54.545Z,95559.84
2019-04-01T04:58:23.137Z,95561.41
2019-04-01T05:00:52.008Z,95561.98
2019-04-01T05:03:20.651Z,95559.09
2019-04-01T05:05:49.763Z,95565.05
2019-04-01T05:08:18.371Z,95567.24
2019-04-01T05:10:47.297Z,95566.23
2019-04-01T05:13:16.209Z,95565.27
2019-04-01T05:15:44.829Z,95563.70
2019-04-01T05:18:13.719Z,95566.41
2019-04-01T05:20:42.861Z,95561.79
2019-04-01T05:23:11.945Z,95565.57
2019-04-01T05:25:40.559Z,95569.48
2019-04-01T05:28:09.796Z,95564.70
2019-04-01T05:30:38.883Z,95565.97
2019-04-01T05:33:10.658Z,95572.72
2019-04-01T05:35:39.618Z,95572.41
2019-04-01T05:38:08.562Z,95573.02
2019-04-01T05:40:37.837Z,95570.78
2019-04-01T05:43:06.535Z,95577.41
2019-04-01T05:45:35.210Z,95580.16
2019-04-01T05:48:04.110Z,95580.06
2019-04-01T05:50:33.104Z,95579.51
2019-04-01T05:53:01.819Z,95584.59
2019-04-01T05:55:30.529Z,95588.13
2019-04-01T05:57:59.204Z,95582.31
2019-04-01T06:00:35.880Z,95581.17
2019-04-01T06:03:04.824Z,95577.14
2019-04-01T06:05:33.427Z,95576.39
2019-04-01T06:08:02.276Z,95578.94
2019-04-01T06:10:31.163Z,95572.87
2019-04-01T06:13:00.099Z,95581.17
2019-04-01T06:15:28.710Z,95585.44
2019-04-01T06:17:57.302Z,95585.19
2019-04-01T06:20:25.916Z,95577.54
2019-04-01T06:22:54.822Z,95584.91
2019-04-01T06:25:24.742Z,95581.50
2019-04-01T06:27:53.438Z,95574.45
2019-04-01T06:30:22.150Z,95574.04
2019-04-01T06:32:51.110Z,95581.31
2019-04-01T06:35:19.722Z,95580.13
2019-04-01T06:37:48.690Z,95576.17
2019-04-01T06:40:17.397Z,95578.05
2019-04-01T06:42:46.480Z,95578.05
2019-04-01T06:45:15.159Z,95573.74
2019-04-01T06:47:44.025Z,95575.23
2019-04-01T06:50:12.610Z,95573.30
2019-04-01T06:52:41.637Z,95584.88
2019-04-01T06:55:10.305Z,95571.29
2019-04-01T06:57:38.988Z,95570.80
2019-04-01T07:00:07.870Z,95569.21
2019-04-01T07:02:36.488Z,95562.07
2019-04-01T07:05:06.107Z,95567.73
2019-04-01T07:07:34.740Z,95562.69
2019-04-01T07:10:03.445Z,95570.52
2019-04-01T07:12:32.132Z,95565.60
2019-04-01T07:15:00.819Z,95564.45
2019-04-01T07:17:29.600Z,95566.30
2019-04-01T07:19:58.234Z,95566.19
2019-04-01T07:22:26.872Z,95559.59
2019-04-01T07:24:55.475Z,95563.42
2019-04-01T07:27:24.467Z,95560.64
2019-04-01T07:29:53.078Z,95561.45
2019-04-01T07:32:21.925Z,95552.14
2019-04-01T07:34:50.884Z,95554.38
2019-04-01T07:37:19.529Z,95556.00
2019-04-01T07:39:48.470Z,95553.39
2019-04-01T07:42:17.327Z,95556.70
2019-04-01T07:44:46.056Z,95554.63
2019-04-01T07:47:15.006Z,95548.55
2019-04-01T07:49:43.656Z,95560.16
2019-04-01T07:52:12.765Z,95558.75
2019-04-01T07:54:41.957Z,95560.69
2019-04-01T07:57:10.547Z,95550.81
2019-04-01T07:59:39.415Z,95548.05
2019-04-01T08:02:08.110Z,95556.77
2019-04-01T08:04:37.094Z,95552.64
2019-04-01T08:07:06.012Z,95554.64
2019-04-01T08:09:34.690Z,95557.47
2019-04-01T08:12:03.319Z,95554.73
2019-04-01T08:14:32.018Z,95554.42
2019-04-01T08:17:00.698Z,95554.42
2019-04-01T08:19:29.461Z,95564.66
2019-04-01T08:21:58.152Z,95555.15
2019-04-01T08:24:27.089Z,95551.81
2019-04-01T08:26:55.997Z,95559.44
2019-04-01T08:29:30.424Z,95554.48
2019-04-01T08:31:54.988Z,95554.47
2019-04-01T08:34:23.635Z,95560.80
2019-04-01T08:36:52.376Z,95551.27
2019-04-01T08:39:21.107Z,95556.73
2019-04-01T08:41:49.869Z,95554.07
2019-04-01T08:44:18.555Z,95552.88
2019-04-01T08:46:47.475Z,95549.74
2019-04-01T08:49:16.318Z,95553.69
2019-04-01T08:51:45.041Z,95551.36
2019-04-01T08:54:13.939Z,95544.20
2019-04-01T08:56:42.638Z,95549.12
2019-04-01T08:59:11.286Z,95542.80
2019-04-01T09:01:40.215Z,95543.96
2019-04-01T09:04:08.877Z,95536.45
2019-04-01T09:06:37.504Z,95548.14
2019-04-01T09:09:07.468Z,95543.20
2019-04-01T09:11:38.371Z,95535.83
2019-04-01T09:14:07.017Z,95534.76
2019-04-01T09:16:35.989Z,95535.48
2019-04-01T09:19:04.630Z,95538.89
2019-04-01T09:21:33.244Z,95534.23
2019-04-01T09:24:01.842Z,95534.77
2019-04-01T09:26:30.460Z,95535.60
2019-04-01T09:28:59.378Z,95526.70
2019-04-01T09:31:28.090Z,95535.33
2019-04-01T09:33:56.716Z,95524.52
2019-04-01T09:36:25.358Z,95522.98
2019-04-01T09:38:53.978Z,95531.27
2019-04-01T09:41:22.594Z,95525.05
2019-04-01T09:43:51.261Z,95526.30
2019-04-01T09:46:20.048Z,95512.47
2019-04-01T09:48:49.013Z,95507.22
2019-04-01T09:51:17.876Z,95512.73
2019-04-01T09:53:46.489Z,95506.92
2019-04-01T09:56:15.125Z,95507.38
2019-04-01T09:58:43.758Z,95507.03
2019-04-01T10:01:12.381Z,95496.09
2019-04-01T10:03:41.235Z,95501.83
2019-04-01T10:06:10.594Z,95500.20
2019-04-01T10:08:42.519Z,95504.37
2019-04-01T10:11:12.443Z,95503.42
2019-04-01T10:13:39.961Z,95495.86
2019-04-01T10:16:08.610Z,95499.38
2019-04-01T10:18:37.271Z,95487.52
2019-04-01T10:21:05.891Z,95481.25
2019-04-01T10:23:34.508Z,95474.25
2019-04-01T10:26:03.195Z,95482.48
2019-04-01T10:28:32.317Z,95478.17
2019-04-01T10:31:01.138Z,95476.63
2019-04-01T10:33:29.758Z,95476.61
2019-04-01T10:35:58.669Z,95472.25
2019-04-01T10:38:27.346Z,95472.31
2019-04-01T10:40:56.323Z,95471.25
2019-04-01T10:43:25.153Z,95470.64
2019-04-01T10:45:54.093Z,95459.66
2019-04-01T10:48:23.111Z,95456.67
2019-04-01T10:50:52.063Z,95461.87
2019-04-01T10:53:24.786Z,95451.48
2019-04-01T10:55:53.704Z,95465.37
2019-04-01T10:58:22.630Z,95450.08
2019-04-01T11:00:51.327Z,95448.52
2019-04-01T11:03:20.093Z,95446.75
2019-04-01T11:05:49.537Z,95448.38
2019-04-01T11:08:18.517Z,95440.66
2019-04-01T11:10:47.506Z,95441.77
2019-04-01T11:13:16.126Z,95437.27
2019-04-01T11:15:45.022Z,95431.40
2019-04-01T11:18:13.627Z,95434.50
2019-04-01T11:20:42.467Z,95430.98
2019-04-01T11:23:11.157Z,95432.03
2019-04-01T11:25:40.055Z,95427.09
2019-04-01T11:28:08.778Z,95423.78
2019-04-01T11:30:37.637Z,95427.41
2019-04-01T11:33:07.897Z,95425.74
2019-04-01T11:35:36.845Z,95414.58
2019-04-01T11:38:05.744Z,95420.96
2019-04-01T11:40:35.682Z,95416.77
2019-04-01T11:43:05.359Z,95414.65
2019-04-01T11:45:34.076Z,95415.23
2019-04-01T11:48:02.856Z,95407.35
2019-04-01T11:50:31.522Z,95403.05
2019-04-01T11:53:00.590Z,95410.09
2019-04-01T11:55:29.521Z,95406.44
2019-04-01T11:57:58.428Z,95407.27
2019-04-01T12:00:27.051Z,95410.88
2019-04-01T12:02:56.120Z,95402.51
2019-04-01T12:05:24.878Z,95395.98
2019-04-01T12:07:53.587Z,95395.06
2019-04-01T12:10:22.293Z,95391.19
2019-04-01T12:12:52.193Z,95399.08
2019-04-01T12:15:20.843Z,95383.75
2019-04-01T12:17:49.598Z,95383.95
2019-04-01T12:20:18.517Z,95378.41
2019-04-01T12:22:47.465Z,95378.65
2019-04-01T12:25:16.514Z,95380.20
2019-04-01T12:27:45.541Z,95373.05
2019-04-01T12:30:14.615Z,95374.80
2019-04-01T12:32:43.313Z,95373.13
2019-04-01T12:35:12.519Z,95360.25
2019-04-01T12:37:41.383Z,95361.86
2019-04-01T12:40:10.769Z,95360.92
2019-04-01T12:42:39.429Z,95347.33
2019-04-01T12:45:08.581Z,95349.11
2019-04-01T12:47:37.564Z,95350.09
2019-04-01T12:50:06.947Z,95345.96
2019-04-01T12:52:35.548Z,95343.23
2019-04-01T12:55:04.473Z,95342.44
2019-04-01T12:57:33.341Z,95339.67
2019-04-01T13:00:01.971Z,95337.28
2019-04-01T13:02:30.666Z,95334.00
2019-04-01T13:04:59.527Z,95337.98
2019-04-01T13:07:28.433Z,95330.05
2019-04-01T13:09:57.058Z,95326.09
2019-04-01T13:12:27.517Z,95334.83
2019-04-01T13:14:56.662Z,95324.52
2019-04-01T13:17:25.668Z,95327.02
2019-04-01T13:19:54.557Z,95317.41
2019-04-01T13:22:23.208Z,95318.51
2019-04-01T13:24:51.996Z,95313.02
2019-04-01T13:27:20.647Z,95311.40
2019-04-01T13:29:49.376Z,95311.94
2019-04-01T13:32:18.009Z,95308.37
2019-04-01T13:34:46.765Z,95307.13
2019-04-01T13:37:15.414Z,95305.91
2019-04-01T13:39:44.043Z,95292.55
2019-04-01T13:42:12.829Z,95290.33
2019-04-01T13:44:42.336Z,95284.99
2019-04-01T13:47:10.957Z,95286.10
2019-04-01T13:49:39.862Z,95286.20
2019-04-01T13:52:08.803Z,95288.56
2019-04-01T13:54:37.558Z,95287.48
2019-04-01T13:57:06.438Z,95278.13
2019-04-01T13:59:48.392Z,95275.95
2019-04-01T14:02:05.509Z,95273.14
2019-04-01T14:04:34.169Z,95277.16
2019-04-01T14:07:03.131Z,95269.78
2019-04-01T14:09:31.902Z,95264.50
2019-04-01T14:12:00.697Z,95257.52
2019-04-01T14:14:29.396Z,95252.69
2019-04-01T14:16:58.020Z,95249.81
2019-04-01T14:19:26.671Z,95249.20
2019-04-01T14:21:55.390Z,95240.87
2019-04-01T14:24:24.017Z,95248.19
2019-04-01T14:26:56.375Z,95244.98
2019-04-01T14:29:23.261Z,95244.31
2019-04-01T14:31:52.196Z,95237.73
2019-04-01T14:34:23.297Z,95237.11
2019-04-01T14:36:52.036Z,95225.86
2019-04-01T14:39:20.706Z,95230.50
2019-04-01T14:41:49.915Z,95221.41
2019-04-01T14:44:18.563Z,95225.55
2019-04-01T14:46:47.174Z,95222.27
2019-04-01T14:49:15.841Z,95215.13
2019-04-01T14:51:44.503Z,95209.69
2019-04-01T14:54:13.258Z,95209.26
2019-04-01T14:56:42.097Z,95203.53
2019-04-01T14:59:10.742Z,95206.58
2019-04-01T15:01:39.902Z,95198.49
2019-04-01T15:04:08.686Z,95201.95
2019-04-01T15:06:37.581Z,95200.14
2019-04-01T15:09:07.895Z,95193.69
2019-04-01T15:11:36.578Z,95192.70
2019-04-01T15:14:05.657Z,95195.00
2019-04-01T15:16:34.621Z,95190.39
2019-04-01T15:19:03.355Z,95185.32
2019-04-01T15:21:32.073Z,95186.59
2019-04-01T15:24:00.737Z,95184.80
2019-04-01T15:26:29.957Z,95176.80
2019-04-01T15:29:00.366Z,95181.06
2019-04-01T15:31:29.860Z,95177.33
2019-04-01T15:33:58.710Z,95172.94
2019-04-01T15:36:27.543Z,95161.90
2019-04-01T15:38:56.207Z,95155.70
2019-04-01T15:41:26.830Z,95153.88
2019-04-01T15:43:55.722Z,95158.66
2019-04-01T15:46:24.349Z,95151.04
2019-04-01T15:48:53.016Z,95160.39
2019-04-01T15:51:21.663Z,95146.83
2019-04-01T15:53:50.593Z,95148.11
2019-04-01T15:56:19.479Z,95148.22
2019-04-01T15:58:50.835Z,95139.41
2019-04-01T16:01:19.019Z,95138.31
2019-04-01T16:03:47.664Z,95132.67
2019-04-01T16:06:16.588Z,95132.73
2019-04-01T16:08:45.359Z,95128.13
2019-04-01T16:11:14.273Z,95119.60
2019-04-01T16:13:43.196Z,95119.42
2019-04-01T16:16:14.485Z,95119.83
2019-04-01T16:18:42.455Z,95114.53
2019-04-01T16:21:11.125Z,95108.95
2019-04-01T16:23:39.999Z,95109.45
2019-04-01T16:26:09.694Z,95110.66
2019-04-01T16:28:38.394Z,95102.41
2019-04-01T16:31:07.085Z,95097.36
2019-04-01T16:33:36.281Z,95099.07
2019-04-01T16:36:05.136Z,95103.20
2019-04-01T16:38:33.826Z,95096.94
2019-04-01T16:41:02.494Z,95094.09
2019-04-01T16:43:31.154Z,95090.78
2019-04-01T16:45:59.871Z,95098.53
2019-04-01T16:48:28.727Z,95095.78
2019-04-01T16:50:57.445Z,95096.73
2019-04-01T16:53:26.079Z,95101.03
2019-04-01T16:55:54.826Z,95100.45
2019-04-01T16:58:26.766Z,95098.53
2019-04-01T17:00:55.404Z,95103.56
2019-04-01T17:03:24.047Z,95100.14
2019-04-01T17:05:52.714Z,95106.58
2019-04-01T17:08:21.705Z,95102.30
2019-04-01T17:10:50.674Z,95102.69
2019-04-01T17:13:19.302Z,95106.42
2019-04-01T17:15:48.139Z,95100.91
2019-04-01T17:18:17.043Z,95097.55
2019-04-01T17:20:45.730Z,95097.70
2019-04-01T17:23:14.360Z,95093.02
2019-04-01T17:25:43.132Z,95106.03
2019-04-01T17:28:11.798Z,95101.31
2019-04-01T17:30:40.798Z,95099.91
2019-04-01T17:33:09.501Z,95097.02
2019-04-01T17:35:38.384Z,95098.47
2019-04-01T17:38:07.510Z,95100.20
2019-04-01T17:40:55.330Z,95088.14
2019-04-01T17:43:24.101Z,95085.62
2019-04-01T17:45:52.838Z,95094.64
2019-04-01T17:48:21.826Z,95088.67
2019-04-01T17:50:51.619Z,95086.34
2019-04-01T17:53:22.401Z,95079.59
2019-04-01T17:55:52.852Z,95081.04
2019-04-01T17:58:21.462Z,95085.08
2019-04-01T18:00:55.597Z,95087.00
2019-04-01T18:03:24.212Z,95088.10
2019-04-01T18:05:52.962Z,95084.37
2019-04-01T18:08:21.644Z,95085.19
2019-04-01T18:10:50.341Z,95085.97
2019-04-01T18:13:19.300Z,95085.56
2019-04-01T18:15:48.222Z,95079.30
2019-04-01T18:18:26.739Z,95078.59
2019-04-01T18:20:47.885Z,95082.70
2019-04-01T18:23:16.750Z,95081.86
2019-04-01T18:25:45.664Z,95091.74
2019-04-01T18:28:14.295Z,95088.14
2019-04-01T18:30:42.943Z,95087.98
2019-04-01T18:33:11.639Z,95093.18
2019-04-01T18:35:40.263Z,95099.77
2019-04-01T18:38:08.912Z,95091.67
2019-04-01T18:40:37.536Z,95091.67
2019-04-01T18:43:06.130Z,95103.31
2019-04-01T18:45:34.750Z,95099.55
2019-04-01T18:48:03.501Z,95099.55
2019-04-01T18:50:32.478Z,95102.39
2019-04-01T18:53:01.626Z,95104.72
2019-04-01T18:55:31.268Z,95104.55
2019-04-01T18:58:00.131Z,95103.03
2019-04-01T19:00:28.756Z,95102.31
2019-04-01T19:02:57.341Z,95100.27
2019-04-01T19:05:26.292Z,95104.31
2019-04-01T19:07:55.395Z,95099.91
2019-04-01T19:10:24.022Z,95100.69
2019-04-01T19:13:05.267Z,95097.59
2019-04-01T19:15:23.497Z,95100.45
2019-04-01T19:17:53.211Z,95096.28
2019-04-01T19:20:21.888Z,95102.19
2019-04-01T19:22:50.495Z,95094.52
2019-04-01T19:25:19.205Z,95090.86
2019-04-01T19:27:48.077Z,95092.63
2019-04-01T19:30:17.898Z,95087.20
2019-04-01T19:32:46.824Z,95091.24
2019-04-01T19:35:15.608Z,95091.49
2019-04-01T19:37:44.446Z,95097.81
2019-04-01T19:40:14.696Z,95091.53
2019-04-01T19:42:43.386Z,95097.52
2019-04-01T19:45:12.971Z,95089.84
2019-04-01T19:47:41.571Z,95094.83
2019-04-01T19:50:10.743Z,95094.70
2019-04-01T19:52:39.344Z,95095.57
2019-04-01T19:55:08.534Z,95091.09
2019-04-01T19:57:37.157Z,95087.16
2019-04-01T20:00:05.918Z,95084.30
2019-04-01T20:02:34.532Z,95083.52
2019-04-01T20:05:03.454Z,95084.28
2019-04-01T20:07:32.330Z,95079.58
2019-04-01T20:10:01.063Z,95079.34
2019-04-01T20:12:32.908Z,95080.27
2019-04-01T20:15:01.511Z,95083.01
2019-04-01T20:17:30.221Z,95074.70
2019-04-01T20:19:58.833Z,95080.41
2019-04-01T20:22:27.549Z,95081.20
2019-04-01T20:24:56.394Z,95083.27
2019-04-01T20:27:24.993Z,95078.31
2019-04-01T20:29:53.912Z,95077.30
2019-04-01T20:32:22.539Z,95078.05
2019-04-01T20:34:57.239Z,95080.64
2019-04-01T20:37:22.024Z,95074.66
2019-04-01T20:42:24.936Z,95079.09
2019-04-01T20:44:53.834Z,95070.00
2019-04-01T20:47:22.503Z,95067.38
2019-04-01T20:49:51.105Z,95070.01
2019-04-01T20:52:19.970Z,95067.91
2019-04-01T20:54:49.090Z,95058.30
2019-04-01T20:57:17.743Z,95061.39
2019-04-01T20:59:46.624Z,95060.63
2019-04-01T21:02:15.503Z,95057.00
2019-04-01T21:04:44.443Z,95052.80
2019-04-01T21:07:14.128Z,95051.78
2019-04-01T21:09:43.073Z,95051.78
2019-04-01T21:12:11.673Z,95045.56
2019-04-01T21:14:40.310Z,95038.22
2019-04-01T21:17:08.910Z,95035.90
2019-04-01T21:19:37.588Z,95031.48
2019-04-01T21:22:07.202Z,95029.19
2019-04-01T21:24:36.934Z,95027.34
2019-04-01T21:27:05.545Z,95019.78
2019-04-01T21:29:34.143Z,95021.36
2019-04-01T21:32:02.759Z,95013.84
2019-04-01T21:34:31.639Z,95009.41
2019-04-01T21:37:03.245Z,95007.05
2019-04-01T21:39:31.098Z,95002.13
2019-04-01T21:41:59.754Z,95003.67
2019-04-01T21:44:28.348Z,95000.94
2019-04-01T21:46:56.959Z,94994.56
2019-04-01T21:49:25.995Z,94989.36
2019-04-01T21:51:54.698Z,94988.23
2019-04-01T21:54:23.358Z,94989.53
2019-04-01T21:56:52.436Z,94990.15
2019-04-01T21:59:21.280Z,94986.00
2019-04-01T22:01:49.947Z,94989.41
2019-04-01T22:04:18.549Z,94981.25
2019-04-01T22:06:47.404Z,94972.98
2019-04-01T22:09:16.316Z,94976.81
2019-04-01T22:11:44.953Z,94966.36
2019-04-01T22:14:13.568Z,94969.72
2019-04-01T22:16:42.181Z,94969.56
2019-04-01T22:19:12.085Z,94964.23
2019-04-01T22:21:40.813Z,94962.15
2019-04-01T22:24:09.646Z,94964.95
2019-04-01T22:26:38.791Z,94958.73
2019-04-01T22:29:07.381Z,94956.84
2019-04-01T22:31:36.324Z,94952.13
2019-04-01T22:34:05.199Z,94950.88
2019-04-01T22:36:34.023Z,94949.07
2019-04-01T22:39:04.262Z,94945.63
2019-04-01T22:41:33.355Z,94947.23
2019-04-01T22:44:01.983Z,94944.55
2019-04-01T22:46:31.121Z,94938.19
2019-04-01T22:48:59.817Z,94938.56
2019-04-01T22:51:28.450Z,94934.44
2019-04-01T22:53:57.083Z,94937.80
2019-04-01T22:56:27.036Z,94929.81
2019-04-01T22:58:56.392Z,94932.38
2019-04-01T23:01:25.247Z,94924.11
2019-04-01T23:03:55.487Z,94915.61
2019-04-01T23:06:26.718Z,94920.57
2019-04-01T23:08:54.939Z,94914.76
2019-04-01T23:11:24.206Z,94913.45
2019-04-01T23:13:53.689Z,94910.16
2019-04-01T23:16:22.296Z,94899.41
2019-04-01T23:18:50.930Z,94897.95
2019-04-01T23:21:19.530Z,94893.16
2019-04-01T23:23:48.428Z,94887.77
2019-04-01T23:26:17.070Z,94881.06
2019-04-01T23:28:45.696Z,94877.43
2019-04-01T23:31:14.571Z,94879.38
2019-04-01T23:33:44.960Z,94880.31
2019-04-01T23:36:13.710Z,94876.69
2019-04-01T23:38:42.322Z,94870.70
2019-04-01T23:41:10.931Z,94868.22
2019-04-01T23:43:39.878Z,94862.11
2019-04-01T23:46:08.734Z,94856.35
2019-04-01T23:48:37.583Z,94858.23
2019-04-01T23:51:07.186Z,94856.57
2019-04-01T23:53:36.059Z,94852.95
2019-04-01T23:56:04.754Z,94853.11
2019-04-01T23:58:33.586Z,94850.65
